sensor_id;sensor_type;location;lat;lon;timestamp;pressure;altitude;pressure_sealevel;temperature;humidity
49915;BME280;35806;47.958;13.158;2023-02-11T00:00:56;96491.07;;;-3.05;44.60
49915;BME280;35806;47.958;13.158;2023-02-11T00:03:24;96490.39;;;-3.32;45.73
49915;BME280;35806;47.958;13.158;2023-02-11T00:06:00;96484.10;;;-3.22;44.87
49915;BME280;35806;47.958;13.158;2023-02-11T00:08:28;96489.01;;;-4.26;47.37
49915;BME280;35806;47.958;13.158;2023-02-11T00:10:56;96490.22;;;-3.66;47.57
49915;BME280;35806;47.958;13.158;2023-02-11T00:13:24;96489.33;;;-3.38;46.40
49915;BME280;35806;47.958;13.158;2023-02-11T00:15:52;96485.05;;;-2.87;45.27
49915;BME280;35806;47.958;13.158;2023-02-11T00:18:30;96486.51;;;-2.42;44.33
49915;BME280;35806;47.958;13.158;2023-02-11T00:20:56;96489.19;;;-3.74;45.43
49915;BME280;35806;47.958;13.158;2023-02-11T00:23:23;96489.53;;;-2.76;44.55
49915;BME280;35806;47.958;13.158;2023-02-11T00:25:51;96490.06;;;-3.28;45.30
49915;BME280;35806;47.958;13.158;2023-02-11T00:28:18;96493.20;;;-3.01;45.36
49915;BME280;35806;47.958;13.158;2023-02-11T00:30:45;96493.09;;;-3.12;45.04
49915;BME280;35806;47.958;13.158;2023-02-11T00:33:20;96494.58;;;-3.55;46.12
49915;BME280;35806;47.958;13.158;2023-02-11T00:35:47;96489.58;;;-3.88;47.24
49915;BME280;35806;47.958;13.158;2023-02-11T00:38:14;96490.77;;;-4.52;48.72
49915;BME280;35806;47.958;13.158;2023-02-11T00:40:42;96485.77;;;-3.05;45.34
49915;BME280;35806;47.958;13.158;2023-02-11T00:43:09;96486.82;;;-3.64;45.65
49915;BME280;35806;47.958;13.158;2023-02-11T00:45:36;96489.04;;;-3.84;46.87
49915;BME280;35806;47.958;13.158;2023-02-11T00:48:03;96485.14;;;-3.33;45.44
49915;BME280;35806;47.958;13.158;2023-02-11T00:50:31;96484.43;;;-3.65;45.65
49915;BME280;35806;47.958;13.158;2023-02-11T00:52:58;96478.92;;;-3.77;45.87
49915;BME280;35806;47.958;13.158;2023-02-11T00:55:25;96480.60;;;-3.38;45.13
49915;BME280;35806;47.958;13.158;2023-02-11T00:57:51;96475.55;;;-3.05;44.63
49915;BME280;35806;47.958;13.158;2023-02-11T01:00:19;96478.21;;;-3.09;44.40
49915;BME280;35806;47.958;13.158;2023-02-11T01:02:46;96480.83;;;-3.32;44.57
49915;BME280;35806;47.958;13.158;2023-02-11T01:05:13;96478.85;;;-3.56;44.83
49915;BME280;35806;47.958;13.158;2023-02-11T01:07:40;96481.04;;;-3.46;45.53
49915;BME280;35806;47.958;13.158;2023-02-11T01:10:08;96477.61;;;-3.34;44.45
49915;BME280;35806;47.958;13.158;2023-02-11T01:12:36;96478.88;;;-3.82;45.42
49915;BME280;35806;47.958;13.158;2023-02-11T01:15:06;96477.29;;;-3.73;45.26
49915;BME280;35806;47.958;13.158;2023-02-11T01:17:34;96475.59;;;-3.15;44.51
49915;BME280;35806;47.958;13.158;2023-02-11T01:20:02;96476.73;;;-3.84;46.03
49915;BME280;35806;47.958;13.158;2023-02-11T01:22:29;96472.38;;;-3.79;45.01
49915;BME280;35806;47.958;13.158;2023-02-11T01:24:56;96474.52;;;-3.98;46.92
49915;BME280;35806;47.958;13.158;2023-02-11T01:27:24;96471.59;;;-4.13;45.82
49915;BME280;35806;47.958;13.158;2023-02-11T01:29:51;96467.72;;;-3.22;44.25
49915;BME280;35806;47.958;13.158;2023-02-11T01:32:18;96471.82;;;-3.59;45.44
49915;BME280;35806;47.958;13.158;2023-02-11T01:34:45;96468.34;;;-2.70;43.23
49915;BME280;35806;47.958;13.158;2023-02-11T01:37:12;96472.44;;;-3.98;45.53
49915;BME280;35806;47.958;13.158;2023-02-11T01:39:39;96468.09;;;-3.40;44.64
49915;BME280;35806;47.958;13.158;2023-02-11T01:42:06;96468.43;;;-3.15;44.05
49915;BME280;35806;47.958;13.158;2023-02-11T01:44:36;96471.03;;;-3.41;44.14
49915;BME280;35806;47.958;13.158;2023-02-11T01:47:03;96468.08;;;-3.13;43.85
49915;BME280;35806;47.958;13.158;2023-02-11T01:49:32;96466.03;;;-3.07;43.70
49915;BME280;35806;47.958;13.158;2023-02-11T01:52:04;96460.71;;;-3.78;44.03
49915;BME280;35806;47.958;13.158;2023-02-11T01:54:35;96461.19;;;-3.63;44.36
49915;BME280;35806;47.958;13.158;2023-02-11T01:57:04;96459.25;;;-3.14;44.34
49915;BME280;35806;47.958;13.158;2023-02-11T01:59:37;96461.41;;;-3.67;44.53
49915;BME280;35806;47.958;13.158;2023-02-11T02:15:50;96457.39;;;-3.48;44.87
49915;BME280;35806;47.958;13.158;2023-02-11T02:18:32;96454.90;;;-3.55;44.51
49915;BME280;35806;47.958;13.158;2023-02-11T02:21:37;96457.44;;;-3.82;44.96
49915;BME280;35806;47.958;13.158;2023-02-11T02:24:41;96449.74;;;-4.09;44.79
49915;BME280;35806;47.958;13.158;2023-02-11T02:27:25;96443.47;;;-3.56;44.16
49915;BME280;35806;47.958;13.158;2023-02-11T02:31:15;96440.99;;;-3.54;44.33
49915;BME280;35806;47.958;13.158;2023-02-11T02:33:53;96432.43;;;-3.29;43.68
49915;BME280;35806;47.958;13.158;2023-02-11T02:36:26;96430.08;;;-3.53;43.85
49915;BME280;35806;47.958;13.158;2023-02-11T02:38:58;96432.73;;;-4.55;46.87
49915;BME280;35806;47.958;13.158;2023-02-11T02:41:29;96430.87;;;-3.36;44.11
49915;BME280;35806;47.958;13.158;2023-02-11T02:43:56;96428.35;;;-3.09;43.84
49915;BME280;35806;47.958;13.158;2023-02-11T02:46:26;96423.61;;;-3.60;43.48
49915;BME280;35806;47.958;13.158;2023-02-11T02:48:54;96423.50;;;-3.37;43.71
49915;BME280;35806;47.958;13.158;2023-02-11T02:52:34;96420.34;;;-3.48;43.70
49915;BME280;35806;47.958;13.158;2023-02-11T02:55:13;96413.03;;;-3.19;44.05
49915;BME280;35806;47.958;13.158;2023-02-11T02:57:57;96412.97;;;-4.01;44.34
49915;BME280;35806;47.958;13.158;2023-02-11T03:00:33;96407.51;;;-2.91;42.25
49915;BME280;35806;47.958;13.158;2023-02-11T03:03:15;96410.10;;;-2.80;42.65
49915;BME280;35806;47.958;13.158;2023-02-11T03:05:51;96409.41;;;-3.16;42.92
49915;BME280;35806;47.958;13.158;2023-02-11T03:08:26;96397.21;;;-3.33;42.90
49915;BME280;35806;47.958;13.158;2023-02-11T03:10:57;96394.07;;;-3.58;43.98
49915;BME280;35806;47.958;13.158;2023-02-11T03:13:27;96397.55;;;-3.59;43.06
49915;BME280;35806;47.958;13.158;2023-02-11T03:15:58;96401.74;;;-2.73;42.20
49915;BME280;35806;47.958;13.158;2023-02-11T03:18:30;96401.41;;;-3.15;42.57
49915;BME280;35806;47.958;13.158;2023-02-11T03:21:02;96395.70;;;-3.26;42.86
49915;BME280;35806;47.958;13.158;2023-02-11T03:23:35;96401.25;;;-3.56;43.46
49915;BME280;35806;47.958;13.158;2023-02-11T03:26:09;96399.94;;;-3.59;43.76
49915;BME280;35806;47.958;13.158;2023-02-11T03:28:43;96399.86;;;-2.85;43.01
49915;BME280;35806;47.958;13.158;2023-02-11T03:31:20;96391.79;;;-3.47;44.41
49915;BME280;35806;47.958;13.158;2023-02-11T03:33:56;96391.71;;;-2.88;43.39
49915;BME280;35806;47.958;13.158;2023-02-11T03:36:29;96392.70;;;-3.31;44.10
49915;BME280;35806;47.958;13.158;2023-02-11T03:38:59;96399.78;;;-3.70;45.02
49915;BME280;35806;47.958;13.158;2023-02-11T03:41:28;96393.42;;;-3.59;44.04
49915;BME280;35806;47.958;13.158;2023-02-11T03:43:57;96392.38;;;-2.86;42.52
49915;BME280;35806;47.958;13.158;2023-02-11T03:46:29;96393.56;;;-3.01;42.81
49915;BME280;35806;47.958;13.158;2023-02-11T03:49:01;96391.55;;;-2.78;42.20
49915;BME280;35806;47.958;13.158;2023-02-11T03:51:31;96386.07;;;-3.01;42.64
49915;BME280;35806;47.958;13.158;2023-02-11T03:54:02;96381.06;;;-3.28;43.09
49915;BME280;35806;47.958;13.158;2023-02-11T03:56:33;96376.19;;;-3.46;43.45
49915;BME280;35806;47.958;13.158;2023-02-11T03:59:03;96377.66;;;-4.36;46.15
49915;BME280;35806;47.958;13.158;2023-02-11T04:01:31;96377.28;;;-5.11;47.67
49915;BME280;35806;47.958;13.158;2023-02-11T04:03:57;96374.96;;;-3.86;45.25
49915;BME280;35806;47.958;13.158;2023-02-11T04:06:25;96384.18;;;-4.42;45.35
49915;BME280;35806;47.958;13.158;2023-02-11T04:08:52;96388.95;;;-4.68;45.47
49915;BME280;35806;47.958;13.158;2023-02-11T04:11:19;96386.63;;;-4.69;46.69
49915;BME280;35806;47.958;13.158;2023-02-11T04:13:46;96384.85;;;-4.79;47.05
49915;BME280;35806;47.958;13.158;2023-02-11T04:16:13;96381.80;;;-4.85;48.55
49915;BME280;35806;47.958;13.158;2023-02-11T04:18:40;96381.49;;;-3.88;44.94
49915;BME280;35806;47.958;13.158;2023-02-11T04:21:08;96384.91;;;-3.55;44.26
49915;BME280;35806;47.958;13.158;2023-02-11T04:23:36;96379.02;;;-3.53;43.68
49915;BME280;35806;47.958;13.158;2023-02-11T04:26:04;96380.44;;;-4.39;45.38
49915;BME280;35806;47.958;13.158;2023-02-11T04:28:31;96379.38;;;-4.65;46.47
49915;BME280;35806;47.958;13.158;2023-02-11T04:30:58;96380.83;;;-3.13;43.27
49915;BME280;35806;47.958;13.158;2023-02-11T04:33:25;96384.62;;;-4.11;44.27
49915;BME280;35806;47.958;13.158;2023-02-11T04:35:53;96370.63;;;-3.59;43.43
49915;BME280;35806;47.958;13.158;2023-02-11T04:38:20;96361.73;;;-3.32;43.33
49915;BME280;35806;47.958;13.158;2023-02-11T04:40:47;96367.20;;;-3.27;42.93
49915;BME280;35806;47.958;13.158;2023-02-11T04:43:15;96372.27;;;-4.60;44.66
49915;BME280;35806;47.958;13.158;2023-02-11T04:45:41;96363.73;;;-3.28;43.19
49915;BME280;35806;47.958;13.158;2023-02-11T04:48:08;96353.68;;;-3.16;43.43
49915;BME280;35806;47.958;13.158;2023-02-11T04:50:35;96353.48;;;-3.42;44.19
49915;BME280;35806;47.958;13.158;2023-02-11T04:53:02;96360.32;;;-3.07;43.10
49915;BME280;35806;47.958;13.158;2023-02-11T04:55:30;96364.58;;;-3.30;43.38
49915;BME280;35806;47.958;13.158;2023-02-11T04:57:57;96369.18;;;-2.88;43.20
49915;BME280;35806;47.958;13.158;2023-02-11T05:00:25;96368.53;;;-2.52;42.50
49915;BME280;35806;47.958;13.158;2023-02-11T05:02:51;96375.38;;;-2.88;42.47
49915;BME280;35806;47.958;13.158;2023-02-11T05:05:19;96381.25;;;-2.78;41.67
49915;BME280;35806;47.958;13.158;2023-02-11T05:07:46;96382.59;;;-2.31;41.47
49915;BME280;35806;47.958;13.158;2023-02-11T05:10:13;96386.05;;;-3.04;41.48
49915;BME280;35806;47.958;13.158;2023-02-11T05:12:41;96381.77;;;-2.42;41.53
49915;BME280;35806;47.958;13.158;2023-02-11T05:15:09;96387.82;;;-2.79;41.15
49915;BME280;35806;47.958;13.158;2023-02-11T05:17:36;96386.19;;;-3.26;41.52
49915;BME280;35806;47.958;13.158;2023-02-11T05:20:04;96389.31;;;-3.14;42.02
49915;BME280;35806;47.958;13.158;2023-02-11T05:22:32;96384.43;;;-2.24;41.04
49915;BME280;35806;47.958;13.158;2023-02-11T05:24:58;96387.99;;;-4.19;43.19
49915;BME280;35806;47.958;13.158;2023-02-11T05:27:25;96384.32;;;-2.52;42.35
49915;BME280;35806;47.958;13.158;2023-02-11T05:29:52;96388.68;;;-4.04;44.41
49915;BME280;35806;47.958;13.158;2023-02-11T05:32:19;96386.73;;;-3.13;42.69
49915;BME280;35806;47.958;13.158;2023-02-11T05:34:46;96385.03;;;-3.87;44.27
49915;BME280;35806;47.958;13.158;2023-02-11T05:37:13;96386.92;;;-3.73;43.38
49915;BME280;35806;47.958;13.158;2023-02-11T05:39:40;96386.84;;;-2.30;41.63
49915;BME280;35806;47.958;13.158;2023-02-11T05:42:07;96379.36;;;-2.08;41.19
49915;BME280;35806;47.958;13.158;2023-02-11T05:44:35;96379.74;;;-3.00;43.00
49915;BME280;35806;47.958;13.158;2023-02-11T05:47:03;96376.22;;;-2.90;42.07
49915;BME280;35806;47.958;13.158;2023-02-11T05:49:30;96366.10;;;-2.23;41.40
49915;BME280;35806;47.958;13.158;2023-02-11T05:51:57;96366.89;;;-2.52;41.35
49915;BME280;35806;47.958;13.158;2023-02-11T05:54:24;96359.12;;;-2.37;41.10
49915;BME280;35806;47.958;13.158;2023-02-11T05:56:51;96352.20;;;-2.16;40.98
49915;BME280;35806;47.958;13.158;2023-02-11T05:59:18;96352.33;;;-2.06;40.72
49915;BME280;35806;47.958;13.158;2023-02-11T06:01:46;96361.08;;;-2.17;41.17
49915;BME280;35806;47.958;13.158;2023-02-11T06:04:13;96363.74;;;-2.46;41.50
49915;BME280;35806;47.958;13.158;2023-02-11T06:06:39;96362.82;;;-2.03;40.86
49915;BME280;35806;47.958;13.158;2023-02-11T06:09:07;96368.64;;;-2.68;40.48
49915;BME280;35806;47.958;13.158;2023-02-11T06:11:34;96367.13;;;-1.98;39.60
49915;BME280;35806;47.958;13.158;2023-02-11T06:14:01;96366.56;;;-1.57;39.32
49915;BME280;35806;47.958;13.158;2023-02-11T06:16:28;96365.26;;;-1.94;39.75
49915;BME280;35806;47.958;13.158;2023-02-11T06:18:55;96365.15;;;-2.00;39.43
49915;BME280;35806;47.958;13.158;2023-02-11T06:21:23;96361.09;;;-2.22;39.73
49915;BME280;35806;47.958;13.158;2023-02-11T06:23:55;96368.06;;;-2.13;40.26
49915;BME280;35806;47.958;13.158;2023-02-11T06:26:22;96368.59;;;-2.09;39.93
49915;BME280;35806;47.958;13.158;2023-02-11T06:28:55;96372.76;;;-1.82;39.47
49915;BME280;35806;47.958;13.158;2023-02-11T06:31:27;96378.32;;;-1.56;39.10
49915;BME280;35806;47.958;13.158;2023-02-11T06:33:54;96383.65;;;-3.29;41.03
49915;BME280;35806;47.958;13.158;2023-02-11T06:36:22;96381.53;;;-2.98;42.10
49915;BME280;35806;47.958;13.158;2023-02-11T06:38:50;96376.94;;;-2.61;41.86
49915;BME280;35806;47.958;13.158;2023-02-11T06:41:28;96371.09;;;-1.76;41.36
49915;BME280;35806;47.958;13.158;2023-02-11T06:43:55;96372.46;;;-1.81;40.97
49915;BME280;35806;47.958;13.158;2023-02-11T06:46:22;96369.34;;;-1.28;39.88
49915;BME280;35806;47.958;13.158;2023-02-11T06:48:49;96367.19;;;-2.18;39.79
49915;BME280;35806;47.958;13.158;2023-02-11T06:51:17;96377.67;;;-2.35;39.95
49915;BME280;35806;47.958;13.158;2023-02-11T06:53:46;96374.90;;;-2.72;42.40
49915;BME280;35806;47.958;13.158;2023-02-11T06:56:15;96383.39;;;-4.15;44.20
49915;BME280;35806;47.958;13.158;2023-02-11T06:58:44;96379.20;;;-3.95;45.73
49915;BME280;35806;47.958;13.158;2023-02-11T07:01:13;96374.27;;;-1.79;42.16
49915;BME280;35806;47.958;13.158;2023-02-11T07:03:42;96378.60;;;-2.03;40.62
49915;BME280;35806;47.958;13.158;2023-02-11T07:06:13;96386.00;;;-2.05;41.84
49915;BME280;35806;47.958;13.158;2023-02-11T07:08:40;96388.34;;;-3.30;41.85
49915;BME280;35806;47.958;13.158;2023-02-11T07:11:09;96384.94;;;-2.16;41.46
49915;BME280;35806;47.958;13.158;2023-02-11T07:13:37;96374.58;;;-0.79;39.41
49915;BME280;35806;47.958;13.158;2023-02-11T07:16:05;96378.02;;;-0.95;39.85
49915;BME280;35806;47.958;13.158;2023-02-11T07:18:33;96379.49;;;-1.28;39.83
49915;BME280;35806;47.958;13.158;2023-02-11T07:21:04;96382.49;;;-2.17;40.97
49915;BME280;35806;47.958;13.158;2023-02-11T07:23:31;96381.59;;;-1.75;39.29
49915;BME280;35806;47.958;13.158;2023-02-11T07:26:02;96378.59;;;-1.09;39.55
49915;BME280;35806;47.958;13.158;2023-02-11T07:28:30;96376.13;;;-1.09;39.34
49915;BME280;35806;47.958;13.158;2023-02-11T07:30:57;96374.07;;;-0.29;38.47
49915;BME280;35806;47.958;13.158;2023-02-11T07:33:25;96378.86;;;0.15;37.79
49915;BME280;35806;47.958;13.158;2023-02-11T07:35:52;96388.81;;;-0.78;37.59
49915;BME280;35806;47.958;13.158;2023-02-11T07:38:18;96382.34;;;0.41;36.46
49915;BME280;35806;47.958;13.158;2023-02-11T07:40:45;96391.09;;;-0.89;38.20
49915;BME280;35806;47.958;13.158;2023-02-11T07:43:13;96393.61;;;-0.45;37.32
49915;BME280;35806;47.958;13.158;2023-02-11T07:45:40;96397.03;;;-2.73;42.20
49915;BME280;35806;47.958;13.158;2023-02-11T07:48:07;96388.10;;;-0.47;38.92
49915;BME280;35806;47.958;13.158;2023-02-11T07:50:34;96391.09;;;-0.13;38.32
49915;BME280;35806;47.958;13.158;2023-02-11T07:53:02;96391.28;;;-0.95;39.47
49915;BME280;35806;47.958;13.158;2023-02-11T07:55:29;96383.96;;;0.68;37.33
49915;BME280;35806;47.958;13.158;2023-02-11T07:57:57;96380.47;;;0.68;38.01
49915;BME280;35806;47.958;13.158;2023-02-11T08:00:24;96369.52;;;-0.04;37.65
49915;BME280;35806;47.958;13.158;2023-02-11T08:02:51;96362.94;;;0.11;38.00
49915;BME280;35806;47.958;13.158;2023-02-11T08:05:17;96354.65;;;0.33;38.34
49915;BME280;35806;47.958;13.158;2023-02-11T08:07:44;96349.25;;;-0.12;38.33
49915;BME280;35806;47.958;13.158;2023-02-11T08:10:11;96354.09;;;-0.09;39.30
49915;BME280;35806;47.958;13.158;2023-02-11T08:12:39;96366.58;;;0.40;37.87
49915;BME280;35806;47.958;13.158;2023-02-11T08:15:07;96372.23;;;0.28;37.91
49915;BME280;35806;47.958;13.158;2023-02-11T08:17:35;96368.88;;;0.09;38.34
49915;BME280;35806;47.958;13.158;2023-02-11T08:20:03;96359.14;;;0.45;38.21
49915;BME280;35806;47.958;13.158;2023-02-11T08:22:30;96354.11;;;1.12;37.67
49915;BME280;35806;47.958;13.158;2023-02-11T08:24:57;96368.70;;;-0.06;37.40
49915;BME280;35806;47.958;13.158;2023-02-11T08:27:25;96373.53;;;-0.43;38.04
49915;BME280;35806;47.958;13.158;2023-02-11T08:29:53;96379.08;;;-0.70;39.60
49915;BME280;35806;47.958;13.158;2023-02-11T08:32:21;96385.26;;;-1.79;40.87
49915;BME280;35806;47.958;13.158;2023-02-11T08:34:50;96384.64;;;-1.78;41.09
49915;BME280;35806;47.958;13.158;2023-02-11T08:37:18;96374.00;;;0.41;38.95
49915;BME280;35806;47.958;13.158;2023-02-11T08:39:46;96375.57;;;0.54;37.97
49915;BME280;35806;47.958;13.158;2023-02-11T08:42:13;96375.59;;;0.98;37.88
49915;BME280;35806;47.958;13.158;2023-02-11T08:44:41;96374.20;;;1.69;36.86
49915;BME280;35806;47.958;13.158;2023-02-11T08:47:09;96373.35;;;1.34;36.92
49915;BME280;35806;47.958;13.158;2023-02-11T08:49:36;96371.39;;;1.65;36.13
49915;BME280;35806;47.958;13.158;2023-02-11T08:52:04;96372.36;;;1.76;36.07
49915;BME280;35806;47.958;13.158;2023-02-11T08:54:31;96372.86;;;2.09;34.99
49915;BME280;35806;47.958;13.158;2023-02-11T08:56:59;96365.84;;;1.64;35.53
49915;BME280;35806;47.958;13.158;2023-02-11T08:59:26;96365.53;;;2.42;34.58
49915;BME280;35806;47.958;13.158;2023-02-11T09:01:54;96365.31;;;2.33;34.22
49915;BME280;35806;47.958;13.158;2023-02-11T09:04:21;96376.86;;;2.71;34.76
49915;BME280;35806;47.958;13.158;2023-02-11T09:06:48;96373.04;;;2.40;34.25
49915;BME280;35806;47.958;13.158;2023-02-11T09:09:16;96364.73;;;2.76;33.28
49915;BME280;35806;47.958;13.158;2023-02-11T09:11:44;96361.91;;;1.96;33.93
49915;BME280;35806;47.958;13.158;2023-02-11T09:14:16;96363.31;;;1.55;34.71
49915;BME280;35806;47.958;13.158;2023-02-11T09:16:44;96367.26;;;1.45;35.14
49915;BME280;35806;47.958;13.158;2023-02-11T09:19:11;96368.02;;;1.08;35.57
49915;BME280;35806;47.958;13.158;2023-02-11T09:21:38;96368.29;;;1.91;35.81
49915;BME280;35806;47.958;13.158;2023-02-11T09:24:06;96368.91;;;2.50;34.37
49915;BME280;35806;47.958;13.158;2023-02-11T09:26:34;96380.84;;;1.78;35.10
49915;BME280;35806;47.958;13.158;2023-02-11T09:29:04;96376.62;;;1.75;35.28
49915;BME280;35806;47.958;13.158;2023-02-11T09:31:32;96371.75;;;3.07;33.86
49915;BME280;35806;47.958;13.158;2023-02-11T09:34:02;96370.62;;;2.79;33.20
49915;BME280;35806;47.958;13.158;2023-02-11T09:36:31;96372.35;;;3.42;33.12
49915;BME280;35806;47.958;13.158;2023-02-11T09:39:00;96367.59;;;4.00;32.13
49915;BME280;35806;47.958;13.158;2023-02-11T09:42:12;96360.27;;;3.64;32.60
49915;BME280;35806;47.958;13.158;2023-02-11T09:44:46;96360.27;;;3.39;33.91
49915;BME280;35806;47.958;13.158;2023-02-11T09:47:23;96357.17;;;3.12;34.26
49915;BME280;35806;47.958;13.158;2023-02-11T09:49:55;96355.32;;;2.41;35.47
49915;BME280;35806;47.958;13.158;2023-02-11T09:52:35;96350.59;;;3.96;30.59
49915;BME280;35806;47.958;13.158;2023-02-11T09:55:10;96344.11;;;3.00;32.38
49915;BME280;35806;47.958;13.158;2023-02-11T09:57:41;96337.23;;;2.09;33.83
49915;BME280;35806;47.958;13.158;2023-02-11T10:00:20;96337.25;;;2.22;34.22
49915;BME280;35806;47.958;13.158;2023-02-11T10:03:03;96347.06;;;3.21;32.30
49915;BME280;35806;47.958;13.158;2023-02-11T10:05:47;96362.08;;;1.65;34.41
49915;BME280;35806;47.958;13.158;2023-02-11T10:08:29;96354.06;;;2.32;33.91
49915;BME280;35806;47.958;13.158;2023-02-11T10:11:03;96341.02;;;2.53;33.62
49915;BME280;35806;47.958;13.158;2023-02-11T10:13:46;96338.76;;;3.11;33.81
49915;BME280;35806;47.958;13.158;2023-02-11T10:16:26;96345.62;;;3.73;33.35
49915;BME280;35806;47.958;13.158;2023-02-11T10:19:10;96343.10;;;3.33;32.90
49915;BME280;35806;47.958;13.158;2023-02-11T10:21:50;96339.09;;;4.10;31.50
49915;BME280;35806;47.958;13.158;2023-02-11T10:24:21;96333.86;;;4.58;30.18
49915;BME280;35806;47.958;13.158;2023-02-11T10:26:48;96331.04;;;4.05;32.06
49915;BME280;35806;47.958;13.158;2023-02-11T10:29:29;96326.45;;;4.75;31.21
49915;BME280;35806;47.958;13.158;2023-02-11T10:32:00;96322.49;;;4.84;30.15
49915;BME280;35806;47.958;13.158;2023-02-11T10:34:30;96325.72;;;4.37;29.42
49915;BME280;35806;47.958;13.158;2023-02-11T10:36:57;96326.21;;;4.72;30.14
49915;BME280;35806;47.958;13.158;2023-02-11T10:39:25;96320.14;;;4.32;29.43
49915;BME280;35806;47.958;13.158;2023-02-11T10:41:58;96319.56;;;4.45;29.28
49915;BME280;35806;47.958;13.158;2023-02-11T10:44:30;96316.11;;;4.06;29.87
49915;BME280;35806;47.958;13.158;2023-02-11T10:47:02;96313.94;;;3.93;30.35
49915;BME280;35806;47.958;13.158;2023-02-11T10:49:34;96309.38;;;3.97;29.53
49915;BME280;35806;47.958;13.158;2023-02-11T10:52:16;96301.82;;;3.82;28.57
49915;BME280;35806;47.958;13.158;2023-02-11T10:55:04;96301.64;;;3.60;29.91
49915;BME280;35806;47.958;13.158;2023-02-11T10:57:35;96295.35;;;4.11;29.79
49915;BME280;35806;47.958;13.158;2023-02-11T11:00:14;96293.98;;;4.22;29.03
49915;BME280;35806;47.958;13.158;2023-02-11T11:02:52;96289.31;;;4.87;27.28
49915;BME280;35806;47.958;13.158;2023-02-11T11:05:30;96286.24;;;5.14;28.12
49915;BME280;35806;47.958;13.158;2023-02-11T11:08:01;96283.12;;;4.87;26.40
49915;BME280;35806;47.958;13.158;2023-02-11T11:10:37;96284.89;;;4.33;27.30
49915;BME280;35806;47.958;13.158;2023-02-11T11:13:07;96280.41;;;4.78;26.93
49915;BME280;35806;47.958;13.158;2023-02-11T11:16:08;96276.93;;;4.98;26.67
49915;BME280;35806;47.958;13.158;2023-02-11T11:18:36;96272.53;;;4.84;26.89
49915;BME280;35806;47.958;13.158;2023-02-11T11:21:05;96267.46;;;5.17;28.24
49915;BME280;35806;47.958;13.158;2023-02-11T11:23:35;96260.64;;;4.53;29.03
49915;BME280;35806;47.958;13.158;2023-02-11T11:26:05;96267.06;;;4.76;27.06
49915;BME280;35806;47.958;13.158;2023-02-11T11:28:37;96273.25;;;5.69;28.14
49915;BME280;35806;47.958;13.158;2023-02-11T11:31:14;96285.48;;;6.45;25.62
49915;BME280;35806;47.958;13.158;2023-02-11T11:33:43;96288.45;;;5.61;25.41
49915;BME280;35806;47.958;13.158;2023-02-11T11:36:14;96281.65;;;5.37;25.81
49915;BME280;35806;47.958;13.158;2023-02-11T11:38:49;96282.30;;;5.18;25.42
49915;BME280;35806;47.958;13.158;2023-02-11T11:41:22;96273.90;;;5.26;27.60
49915;BME280;35806;47.958;13.158;2023-02-11T11:43:56;96262.40;;;5.92;27.26
49915;BME280;35806;47.958;13.158;2023-02-11T11:46:25;96262.86;;;5.64;25.99
49915;BME280;35806;47.958;13.158;2023-02-11T11:48:58;96260.81;;;6.18;24.86
49915;BME280;35806;47.958;13.158;2023-02-11T11:51:27;96261.14;;;6.85;23.95
49915;BME280;35806;47.958;13.158;2023-02-11T11:53:57;96260.53;;;5.52;25.36
49915;BME280;35806;47.958;13.158;2023-02-11T11:56:28;96256.49;;;6.61;25.57
49915;BME280;35806;47.958;13.158;2023-02-11T11:58:59;96249.81;;;7.86;24.21
49915;BME280;35806;47.958;13.158;2023-02-11T12:01:35;96242.15;;;6.99;22.97
49915;BME280;35806;47.958;13.158;2023-02-11T12:04:19;96235.23;;;6.36;25.81
49915;BME280;35806;47.958;13.158;2023-02-11T12:07:10;96229.56;;;6.84;25.07
49915;BME280;35806;47.958;13.158;2023-02-11T12:09:48;96230.94;;;8.08;23.97
49915;BME280;35806;47.958;13.158;2023-02-11T12:12:26;96235.00;;;7.17;23.29
49915;BME280;35806;47.958;13.158;2023-02-11T12:15:10;96226.22;;;7.06;23.71
49915;BME280;35806;47.958;13.158;2023-02-11T12:17:52;96218.70;;;5.76;26.51
49915;BME280;35806;47.958;13.158;2023-02-11T12:20:31;96213.38;;;5.81;26.29
49915;BME280;35806;47.958;13.158;2023-02-11T12:23:18;96218.00;;;6.52;25.06
49915;BME280;35806;47.958;13.158;2023-02-11T12:25:56;96211.70;;;6.62;25.27
49915;BME280;35806;47.958;13.158;2023-02-11T12:28:35;96208.29;;;6.69;24.69
49915;BME280;35806;47.958;13.158;2023-02-11T12:31:21;96208.15;;;6.51;25.08
49915;BME280;35806;47.958;13.158;2023-02-11T12:34:04;96210.06;;;7.23;23.94
49915;BME280;35806;47.958;13.158;2023-02-11T12:36:44;96212.10;;;4.91;26.98
49915;BME280;35806;47.958;13.158;2023-02-11T12:39:25;96214.28;;;3.86;27.96
49915;BME280;35806;47.958;13.158;2023-02-11T12:42:38;96213.05;;;3.91;27.52
49915;BME280;35806;47.958;13.158;2023-02-11T12:45:17;96204.74;;;2.53;30.57
49915;BME280;35806;47.958;13.158;2023-02-11T12:47:59;96201.27;;;2.35;30.93
49915;BME280;35806;47.958;13.158;2023-02-11T12:50:37;96193.70;;;2.39;30.05
49915;BME280;35806;47.958;13.158;2023-02-11T12:53:21;96191.06;;;4.14;29.56
49915;BME280;35806;47.958;13.158;2023-02-11T12:55:57;96204.37;;;1.83;31.31
49915;BME280;35806;47.958;13.158;2023-02-11T12:58:30;96210.46;;;2.16;31.61
49915;BME280;35806;47.958;13.158;2023-02-11T13:01:04;96207.68;;;2.17;32.75
49915;BME280;35806;47.958;13.158;2023-02-11T13:03:36;96205.07;;;2.84;31.55
49915;BME280;35806;47.958;13.158;2023-02-11T13:06:09;96201.88;;;2.45;32.02
49915;BME280;35806;47.958;13.158;2023-02-11T13:08:41;96202.11;;;1.80;34.22
49915;BME280;35806;47.958;13.158;2023-02-11T13:11:12;96193.38;;;2.44;33.63
49915;BME280;35806;47.958;13.158;2023-02-11T13:13:48;96185.63;;;2.47;33.19
49915;BME280;35806;47.958;13.158;2023-02-11T13:16:29;96190.06;;;1.83;34.60
49915;BME280;35806;47.958;13.158;2023-02-11T13:19:05;96181.52;;;3.86;31.51
49915;BME280;35806;47.958;13.158;2023-02-11T13:21:46;96181.47;;;4.41;30.10
49915;BME280;35806;47.958;13.158;2023-02-11T13:24:24;96175.81;;;5.22;30.61
49915;BME280;35806;47.958;13.158;2023-02-11T13:27:02;96182.83;;;3.51;30.57
49915;BME280;35806;47.958;13.158;2023-02-11T13:29:44;96174.55;;;5.32;28.88
49915;BME280;35806;47.958;13.158;2023-02-11T13:32:20;96174.57;;;3.84;30.75